AYNZ/LAE METAR and TAF weather

Enter ICAO airport designator
Station Type Date Time Source
AYNZ METAR 2021/04/13 21:00 UTC NOAA

AYNZ 132100Z VRB03KT 4000M BKN015 BKN040 23/21 Q1010=


Station Type Date Time Source
AYNZ Decoded METAR 2021/04/13 21:00 UTC NOAA

Station name not available
Apr 13, 2021 - 05:00 PM EDT / 2021.04.13 2100 UTC
Wind: Variable at 3 MPH (3 KT):0
Sky conditions: mostly cloudy
Temperature: 73 F (23 C)
Dew Point: 69 F (21 C)
Relative Humidity: 88%
Pressure (altimeter): 29.83 in. Hg (1010 hPa)
ob: AYNZ 132100Z VRB03KT 4000M BKN015 BKN040 23/21 Q1010=
cycle: 21

Station Type Date Time Source
AYNZ TAF 2015/08/19 08:15 UTC NOAA

TAF AYNZ 190550Z 1908/1920 09015KT 9999 SCT020 SCT120
FM191400 VRB03KT 9999 BKN040 Q 1011 1014 1013 1010

Example: see airport list